createdAt,value
2018-05-21T00:00:58.105Z,8.93
2018-05-21T00:03:26.483Z,11.17
2018-05-21T00:05:53.990Z,9.57
2018-05-21T00:08:21.639Z,8.63
2018-05-21T00:10:49.566Z,9.17
2018-05-21T00:13:17.095Z,9.13
2018-05-21T00:15:45.406Z,8.50
2018-05-21T00:18:13.796Z,8.80
2018-05-21T00:20:41.567Z,8.87
2018-05-21T00:23:10.150Z,8.03
2018-05-21T00:25:37.864Z,8.67
2018-05-21T00:28:07.136Z,9.30
2018-05-21T00:30:34.892Z,8.90
2018-05-21T00:33:02.700Z,8.93
2018-05-21T00:35:31.103Z,8.83
2018-05-21T00:37:58.879Z,8.80
2018-05-21T00:40:26.541Z,8.43
2018-05-21T00:42:54.184Z,8.40
2018-05-21T00:45:21.748Z,9.03
2018-05-21T00:47:50.142Z,8.47
2018-05-21T00:50:17.706Z,9.23
2018-05-21T00:52:45.583Z,9.80
2018-05-21T00:55:25.318Z,11.00
2018-05-21T00:57:52.922Z,9.60
2018-05-21T01:00:21.467Z,9.43
2018-05-21T01:02:49.224Z,9.43
2018-05-21T01:05:17.719Z,9.23
2018-05-21T01:07:45.339Z,8.43
2018-05-21T01:10:13.718Z,9.87
2018-05-21T01:12:42.102Z,9.27
2018-05-21T01:15:09.676Z,9.90
2018-05-21T01:17:37.450Z,9.80
2018-05-21T01:20:05.124Z,10.50
2018-05-21T01:22:32.750Z,9.33
2018-05-21T01:25:00.340Z,9.57
2018-05-21T01:27:28.233Z,9.30
2018-05-21T01:29:56.642Z,10.23
2018-05-21T01:32:25.089Z,9.13
2018-05-21T01:34:52.606Z,9.73
2018-05-21T01:37:20.237Z,9.63
2018-05-21T01:39:48.680Z,10.00
2018-05-21T01:42:16.251Z,10.33
2018-05-21T01:44:43.784Z,12.10
2018-05-21T01:47:11.315Z,8.77
2018-05-21T01:49:38.819Z,12.07
2018-05-21T01:52:06.475Z,10.30
2018-05-21T01:54:34.305Z,9.27
2018-05-21T01:57:01.839Z,9.73
2018-05-21T01:59:29.564Z,9.50
2018-05-21T02:01:57.079Z,9.50
2018-05-21T02:04:24.639Z,9.17
2018-05-21T02:06:52.147Z,11.23
2018-05-21T02:09:19.844Z,10.53
2018-05-21T02:11:48.153Z,11.03
2018-05-21T02:14:15.655Z,10.13
2018-05-21T02:16:43.159Z,12.00
2018-05-21T02:19:10.687Z,11.47
2018-05-21T02:21:38.322Z,10.83
2018-05-21T02:24:05.913Z,10.70
2018-05-21T02:26:33.435Z,10.97
2018-05-21T02:29:01.031Z,11.47
2018-05-21T02:31:29.184Z,11.33
2018-05-21T02:33:56.853Z,10.90
2018-05-21T02:36:24.359Z,11.90
2018-05-21T02:38:52.078Z,12.57
2018-05-21T02:41:19.606Z,11.57
2018-05-21T02:43:47.285Z,12.13
2018-05-21T02:46:14.851Z,12.67
2018-05-21T02:48:42.398Z,13.33
2018-05-21T02:51:09.920Z,12.90
2018-05-21T02:53:38.217Z,13.50
2018-05-21T02:56:05.731Z,13.30
2018-05-21T02:58:33.476Z,15.43
2018-05-21T03:01:01.104Z,14.70
2018-05-21T03:03:28.603Z,15.43
2018-05-21T03:05:56.260Z,15.67
2018-05-21T03:08:23.931Z,14.00
2018-05-21T03:10:52.231Z,15.33
2018-05-21T03:13:20.568Z,15.93
2018-05-21T03:15:48.257Z,15.77
2018-05-21T03:18:16.619Z,15.80
2018-05-21T03:20:44.182Z,15.70
2018-05-21T03:23:11.798Z,15.70
2018-05-21T03:25:39.489Z,16.90
2018-05-21T03:28:07.131Z,18.30
2018-05-21T03:30:34.681Z,17.63
2018-05-21T03:33:02.277Z,17.27
2018-05-21T03:35:29.995Z,16.83
2018-05-21T03:37:57.504Z,19.97
2018-05-21T03:40:25.175Z,17.43
2018-05-21T03:42:53.704Z,17.67
2018-05-21T03:45:22.096Z,17.70
2018-05-21T03:47:49.683Z,19.40
2018-05-21T03:50:17.198Z,17.27
2018-05-21T03:52:44.840Z,17.33
2018-05-21T03:55:12.443Z,15.50
2018-05-21T03:57:40.167Z,18.10
2018-05-21T04:00:19.722Z,18.17
2018-05-21T04:02:59.194Z,17.27
2018-05-21T04:05:27.064Z,19.40
2018-05-21T04:07:54.784Z,20.33
2018-05-21T04:10:22.287Z,19.03
2018-05-21T04:12:49.963Z,18.00
2018-05-21T04:15:17.728Z,20.07
2018-05-21T04:17:45.256Z,18.00
2018-05-21T04:20:12.779Z,19.67
2018-05-21T04:22:40.326Z,19.23
2018-05-21T04:25:07.908Z,19.90
2018-05-21T04:27:36.327Z,19.47
2018-05-21T04:30:04.839Z,18.73
2018-05-21T04:32:32.498Z,17.73
2018-05-21T04:35:00.155Z,23.70
2018-05-21T04:37:29.303Z,20.90
2018-05-21T04:39:56.837Z,19.60
2018-05-21T04:42:25.314Z,19.07
2018-05-21T04:44:52.840Z,21.27
2018-05-21T04:47:21.382Z,17.57
2018-05-21T04:49:49.799Z,18.77
2018-05-21T04:52:18.226Z,19.03
2018-05-21T04:54:46.519Z,18.13
2018-05-21T04:57:14.188Z,20.40
2018-05-21T04:59:41.780Z,20.23
2018-05-21T05:02:09.563Z,20.67
2018-05-21T05:04:38.105Z,19.13
2018-05-21T05:07:05.870Z,20.23
2018-05-21T05:09:33.379Z,20.90
2018-05-21T05:12:00.893Z,22.43
2018-05-21T05:14:28.575Z,21.87
2018-05-21T05:16:57.029Z,21.33
2018-05-21T05:19:24.567Z,21.63
2018-05-21T05:21:52.831Z,21.00
2018-05-21T05:24:22.146Z,26.60
2018-05-21T05:26:49.929Z,21.53
2018-05-21T05:29:17.517Z,21.97
2018-05-21T05:31:45.159Z,19.10
2018-05-21T05:34:12.865Z,18.57
2018-05-21T05:36:40.465Z,21.70
2018-05-21T05:39:08.351Z,19.90
2018-05-21T05:41:36.112Z,18.53
2018-05-21T05:44:03.761Z,18.10
2018-05-21T05:46:31.584Z,18.73
2018-05-21T05:48:59.880Z,16.53
2018-05-21T05:51:28.291Z,18.20
2018-05-21T05:53:56.047Z,18.50
2018-05-21T05:56:23.724Z,18.97
2018-05-21T05:58:51.389Z,15.97
2018-05-21T06:01:18.966Z,16.53
2018-05-21T06:03:46.612Z,16.93
2018-05-21T06:06:14.371Z,17.20
2018-05-21T06:08:41.967Z,18.70
2018-05-21T06:11:09.606Z,14.70
2018-05-21T06:13:37.165Z,16.57
2018-05-21T06:16:04.648Z,15.50
2018-05-21T06:18:32.255Z,16.13
2018-05-21T06:21:00.691Z,17.10
2018-05-21T06:23:28.994Z,17.53
2018-05-21T06:25:57.444Z,15.90
2018-05-21T06:28:24.953Z,15.20
2018-05-21T06:30:52.711Z,14.13
2018-05-21T06:33:21.193Z,15.57
2018-05-21T06:35:48.714Z,16.80
2018-05-21T06:38:16.336Z,14.43
2018-05-21T06:40:43.956Z,13.00
2018-05-21T06:43:11.514Z,14.17
2018-05-21T06:45:43.219Z,13.07
2018-05-21T06:48:10.843Z,11.57
2018-05-21T06:50:39.183Z,11.40
2018-05-21T06:53:06.840Z,11.03
2018-05-21T06:55:34.535Z,12.00
2018-05-21T06:58:02.826Z,10.73
2018-05-21T07:00:31.101Z,12.60
2018-05-21T07:02:59.371Z,12.00
2018-05-21T07:05:27.651Z,14.40
2018-05-21T07:07:55.955Z,14.10
2018-05-21T07:10:25.739Z,14.57
2018-05-21T07:12:54.014Z,13.60
2018-05-21T07:15:22.293Z,16.77
2018-05-21T07:17:51.151Z,13.70
2018-05-21T07:20:18.698Z,15.47
2018-05-21T07:22:46.206Z,17.23
2018-05-21T07:25:14.481Z,16.70
2018-05-21T07:27:42.767Z,16.77
2018-05-21T07:30:10.279Z,19.13
2018-05-21T07:32:37.819Z,17.27
2018-05-21T07:35:05.334Z,18.20
2018-05-21T07:37:32.846Z,18.30
2018-05-21T07:40:00.378Z,18.83
2018-05-21T07:42:27.974Z,18.63
2018-05-21T07:44:55.748Z,18.20
2018-05-21T08:02:05.596Z,17.40
2018-05-21T08:09:27.251Z,17.60
2018-05-21T08:14:21.852Z,17.87
2018-05-21T08:16:49.365Z,20.10
2018-05-21T08:19:16.911Z,20.00
2018-05-21T08:21:45.183Z,26.77
2018-05-21T08:24:13.459Z,21.77
2018-05-21T08:26:41.846Z,20.60
2018-05-21T08:29:09.347Z,21.40
2018-05-21T08:31:36.860Z,22.93
2018-05-21T08:34:05.147Z,20.77
2018-05-21T08:36:32.664Z,22.33
2018-05-21T08:39:00.176Z,22.77
2018-05-21T08:41:27.727Z,27.93
2018-05-21T08:43:55.236Z,22.53
2018-05-21T08:46:22.808Z,21.80
2018-05-21T08:48:50.369Z,19.03
2018-05-21T08:51:17.875Z,19.83
2018-05-21T08:53:45.414Z,19.73
2018-05-21T08:56:13.026Z,18.83
2018-05-21T08:58:40.822Z,18.20
2018-05-21T09:08:37.504Z,13.60
2018-05-21T09:11:05.975Z,15.50
2018-05-21T09:13:35.055Z,11.50
2018-05-21T09:16:03.564Z,13.27
2018-05-21T09:18:31.070Z,10.77
2018-05-21T09:25:52.928Z,9.70
2018-05-21T09:28:21.450Z,7.47
2018-05-21T09:30:53.607Z,8.85
2018-05-21T09:33:22.136Z,9.10
2018-05-21T09:35:54.278Z,9.60
2018-05-21T09:38:21.876Z,9.70
2018-05-21T09:45:51.489Z,8.53
2018-05-21T09:58:16.395Z,8.20
2018-05-21T10:08:06.962Z,6.73
2018-05-21T10:10:35.596Z,7.07
2018-05-21T10:13:04.138Z,7.03
2018-05-21T10:15:32.748Z,6.43
2018-05-21T10:23:00.883Z,10.10
2018-05-21T10:37:50.503Z,6.70
2018-05-21T11:12:41.204Z,6.80
2018-05-21T11:15:10.743Z,10.20
2018-05-21T11:32:32.565Z,12.30
2018-05-21T11:35:00.879Z,6.07
2018-05-21T11:54:40.948Z,6.20
2018-05-21T12:09:24.923Z,5.33
2018-05-21T12:11:52.435Z,4.23
2018-05-21T12:14:20.011Z,5.80
2018-05-21T12:16:47.530Z,8.37
2018-05-21T12:41:19.732Z,6.00
2018-05-21T12:43:48.064Z,10.33
2018-05-21T12:46:15.611Z,5.30
2018-05-21T12:48:43.163Z,6.83
2018-05-21T12:53:37.748Z,5.90
2018-05-21T13:10:49.035Z,11.43
2018-05-21T13:15:44.395Z,6.47
2018-05-21T13:20:38.948Z,6.97
2018-05-21T13:35:22.737Z,6.10
2018-05-21T13:37:51.147Z,6.50
2018-05-21T13:40:20.236Z,5.30
2018-05-21T13:42:47.883Z,5.70
2018-05-21T13:45:15.420Z,6.23
2018-05-21T13:50:10.229Z,7.87
2018-05-21T15:11:12.039Z,5.60
2018-05-21T15:21:02.728Z,4.90
2018-05-21T15:28:37.491Z,5.43
2018-05-21T15:31:11.663Z,7.50
2018-05-21T15:33:39.410Z,13.20
2018-05-21T15:36:09.385Z,14.23
2018-05-21T15:38:37.982Z,7.07
2018-05-21T15:41:09.318Z,6.20
2018-05-21T15:43:38.246Z,10.97
2018-05-21T15:46:13.947Z,7.53
2018-05-21T15:48:46.177Z,10.83
2018-05-21T15:51:14.260Z,8.57
2018-05-21T15:53:43.129Z,6.73
2018-05-21T15:56:11.913Z,15.60
2018-05-21T15:58:39.800Z,6.50
2018-05-21T16:01:08.656Z,37.03
2018-05-21T16:03:41.103Z,5.20
2018-05-21T16:06:10.068Z,4.93
2018-05-21T16:08:42.055Z,12.40
2018-05-21T16:11:11.054Z,12.57
2018-05-21T16:13:40.327Z,8.63
2018-05-21T16:16:09.777Z,8.80
2018-05-21T16:18:39.418Z,4.73
2018-05-21T16:21:07.271Z,5.90
2018-05-21T16:23:35.259Z,5.97
2018-05-21T16:26:05.625Z,5.60
2018-05-21T16:28:34.485Z,6.73
2018-05-21T16:31:04.501Z,4.80
2018-05-21T16:33:32.498Z,19.80
2018-05-21T16:36:00.540Z,16.43
2018-05-21T16:38:29.248Z,4.70
2018-05-21T16:40:56.809Z,16.10
2018-05-21T16:43:24.726Z,19.20
2018-05-21T16:45:53.226Z,13.20
2018-05-21T16:48:21.964Z,5.10
2018-05-21T16:50:54.127Z,18.37
2018-05-21T16:53:27.697Z,17.07
2018-05-21T16:55:57.391Z,5.73
2018-05-21T16:58:29.455Z,5.30
2018-05-21T17:01:12.950Z,5.47
2018-05-21T17:03:41.860Z,5.77
2018-05-21T17:06:13.673Z,4.87
2018-05-21T17:08:43.430Z,5.97
2018-05-21T17:11:14.125Z,7.27
2018-05-21T17:13:45.479Z,5.80
2018-05-21T17:16:13.671Z,5.03
2018-05-21T17:18:42.289Z,9.80
2018-05-21T17:21:09.929Z,5.50
2018-05-21T17:23:38.845Z,5.90
2018-05-21T17:26:07.753Z,18.53
2018-05-21T17:28:36.518Z,9.43
2018-05-21T17:31:07.059Z,14.00
2018-05-21T17:33:37.444Z,15.90
2018-05-21T17:36:06.816Z,13.27
2018-05-21T17:38:34.760Z,8.17
2018-05-21T17:41:04.994Z,24.53
2018-05-21T17:43:33.207Z,12.77
2018-05-21T17:46:02.819Z,13.43
2018-05-21T17:48:32.870Z,20.50
2018-05-21T17:51:00.685Z,6.40
2018-05-21T17:53:30.115Z,8.83
2018-05-21T17:55:58.225Z,9.30
2018-05-21T17:58:25.920Z,10.03
2018-05-21T18:00:56.445Z,8.17
2018-05-21T18:03:26.553Z,5.50
2018-05-21T18:05:54.774Z,13.57
2018-05-21T18:08:25.290Z,6.60
2018-05-21T18:10:55.442Z,7.07
2018-05-21T18:13:24.698Z,8.43
2018-05-21T18:15:52.721Z,11.80
2018-05-21T18:18:21.937Z,8.17
2018-05-21T18:20:52.723Z,9.03
2018-05-21T18:23:21.855Z,5.87
2018-05-21T18:25:51.745Z,8.80
2018-05-21T18:28:20.391Z,5.83
2018-05-21T18:30:50.633Z,7.73
2018-05-21T18:33:20.042Z,10.53
2018-05-21T18:35:52.477Z,5.67
2018-05-21T18:38:21.228Z,6.80
2018-05-21T18:40:48.845Z,14.73
2018-05-21T18:43:16.389Z,10.03
2018-05-21T18:45:43.912Z,9.53
2018-05-21T18:48:13.095Z,7.43
2018-05-21T18:50:44.035Z,11.83
2018-05-21T18:53:13.697Z,8.00
2018-05-21T18:55:43.374Z,8.63
2018-05-21T18:58:12.528Z,8.40
2018-05-21T19:00:42.615Z,7.73
2018-05-21T19:03:11.639Z,10.30
2018-05-21T19:05:39.270Z,8.67
2018-05-21T19:08:07.866Z,7.83
2018-05-21T19:10:36.082Z,8.93
2018-05-21T19:13:04.455Z,11.63
2018-05-21T19:15:37.248Z,7.80
2018-05-21T19:18:05.628Z,7.40
2018-05-21T19:20:36.529Z,23.63
2018-05-21T19:23:06.414Z,10.93
2018-05-21T19:25:39.199Z,8.63
2018-05-21T19:28:08.815Z,10.37
2018-05-21T19:30:37.820Z,11.07
2018-05-21T19:33:08.073Z,13.17
2018-05-21T19:35:36.494Z,9.37
2018-05-21T19:38:04.079Z,7.53
2018-05-21T19:40:31.663Z,10.30
2018-05-21T19:43:01.183Z,8.30
2018-05-21T19:45:29.672Z,8.50
2018-05-21T19:47:58.017Z,8.97
2018-05-21T19:50:25.607Z,8.40
2018-05-21T19:52:54.091Z,8.83
2018-05-21T19:55:22.761Z,8.80
2018-05-21T19:57:50.756Z,9.20
2018-05-21T20:00:18.410Z,9.80
2018-05-21T20:02:46.748Z,8.10
2018-05-21T20:05:14.821Z,9.97
2018-05-21T20:07:44.439Z,9.60
2018-05-21T20:10:14.427Z,10.07
2018-05-21T20:12:43.253Z,15.40
2018-05-21T20:15:13.017Z,9.93
